createdAt,value
2022-08-17T00:00:56.476Z,9.719131
2022-08-17T00:01:56.515Z,9.719196
2022-08-17T00:02:56.476Z,9.719142
2022-08-17T00:03:56.447Z,9.719255
2022-08-17T00:04:56.439Z,9.719103
2022-08-17T00:05:56.430Z,9.719306
2022-08-17T00:06:56.428Z,9.719239
2022-08-17T00:07:56.441Z,9.719177
2022-08-17T00:08:56.427Z,9.719231
2022-08-17T00:09:56.384Z,9.719063
2022-08-17T00:10:56.382Z,9.719038
2022-08-17T00:12:34.883Z,9.719126
2022-08-17T00:12:57.368Z,9.719095
2022-08-17T00:13:56.377Z,9.719158
2022-08-17T00:14:56.344Z,9.719051
2022-08-17T00:15:56.333Z,9.719131
2022-08-17T00:16:57.627Z,9.719086
2022-08-17T00:17:56.315Z,9.719035
2022-08-17T00:19:08.003Z,9.719000
2022-08-17T00:19:57.288Z,9.719053
2022-08-17T00:20:56.290Z,9.719075
2022-08-17T00:22:31.323Z,9.719120
2022-08-17T00:22:57.278Z,9.719112
2022-08-17T00:23:56.264Z,9.719101
2022-08-17T00:24:56.251Z,9.719098
2022-08-17T00:25:56.252Z,9.719103
2022-08-17T00:26:56.256Z,9.719044
2022-08-17T00:27:56.213Z,9.719064
2022-08-17T00:28:56.221Z,9.719172
2022-08-17T00:29:56.214Z,9.719111
2022-08-17T00:30:56.193Z,9.719098
2022-08-17T00:31:56.181Z,9.719059
2022-08-17T00:33:14.623Z,9.719161
2022-08-17T00:33:57.158Z,9.719078
2022-08-17T00:34:56.171Z,9.718939
2022-08-17T00:35:56.177Z,9.718995
2022-08-17T00:36:56.122Z,9.719030
2022-08-17T00:37:56.104Z,9.719060
2022-08-17T00:38:56.105Z,9.719094
2022-08-17T00:39:56.181Z,9.719147
2022-08-17T00:40:59.266Z,9.719152
2022-08-17T00:41:56.084Z,9.719073
2022-08-17T00:42:56.103Z,9.719149
2022-08-17T00:43:56.073Z,9.719094
2022-08-17T00:44:56.067Z,9.719085
2022-08-17T00:45:56.041Z,9.719062
2022-08-17T00:46:56.035Z,9.719115
2022-08-17T00:47:56.023Z,9.719126
2022-08-17T00:48:56.035Z,9.719177
2022-08-17T00:49:56.017Z,9.719231
2022-08-17T00:50:56.007Z,9.719239
2022-08-17T00:51:55.986Z,9.719215
2022-08-17T00:52:55.991Z,9.719176
2022-08-17T00:53:55.973Z,9.719227
2022-08-17T00:55:27.869Z,9.719316
2022-08-17T00:55:55.970Z,9.719229
2022-08-17T00:56:55.938Z,9.719269
2022-08-17T00:57:55.930Z,9.719293
2022-08-17T00:58:55.920Z,9.719218
2022-08-17T01:00:03.284Z,9.719227
2022-08-17T01:00:56.967Z,9.719090
2022-08-17T01:01:55.898Z,9.719027
2022-08-17T01:02:56.018Z,9.719110
2022-08-17T01:03:59.825Z,9.719247
2022-08-17T01:04:55.881Z,9.719194
2022-08-17T01:05:55.847Z,9.719191
2022-08-17T01:06:55.863Z,9.719269
2022-08-17T01:07:55.830Z,9.719320
2022-08-17T01:08:57.656Z,9.719313
2022-08-17T01:09:55.817Z,9.719266
2022-08-17T01:10:59.778Z,9.719254
2022-08-17T01:11:55.791Z,9.719275
2022-08-17T01:12:55.784Z,9.719314
2022-08-17T01:13:55.769Z,9.719307
2022-08-17T01:14:55.754Z,9.719283
2022-08-17T01:15:55.764Z,9.719415
2022-08-17T01:16:55.742Z,9.719346
2022-08-17T01:17:55.725Z,9.719469
2022-08-17T01:18:55.720Z,9.719263
2022-08-17T01:19:55.710Z,9.719141
2022-08-17T01:20:55.717Z,9.719084
2022-08-17T01:21:55.703Z,9.719047
2022-08-17T01:22:55.683Z,9.719098
2022-08-17T01:23:55.668Z,9.719173
2022-08-17T01:24:55.654Z,9.719140
2022-08-17T01:25:55.651Z,9.719308
2022-08-17T01:26:56.698Z,9.719220
2022-08-17T01:27:55.666Z,9.719195
2022-08-17T01:28:56.011Z,9.719313
2022-08-17T01:29:56.619Z,9.719432
2022-08-17T01:30:58.761Z,9.719315
2022-08-17T01:31:55.586Z,9.719480
2022-08-17T01:32:55.598Z,9.719363
2022-08-17T01:33:55.569Z,9.719367
2022-08-17T01:34:55.553Z,9.719343
2022-08-17T01:35:55.543Z,9.719459
2022-08-17T01:36:55.538Z,9.719423
2022-08-17T01:37:55.533Z,9.719316
2022-08-17T01:38:55.540Z,9.719237
2022-08-17T01:39:55.638Z,9.719237
2022-08-17T01:40:57.461Z,9.719361
2022-08-17T01:41:55.495Z,9.719316
2022-08-17T01:42:55.481Z,9.719214
2022-08-17T01:43:55.469Z,9.719301
2022-08-17T01:44:55.480Z,9.719256
2022-08-17T01:46:02.528Z,9.719261
2022-08-17T01:46:55.445Z,9.719285
2022-08-17T01:47:55.463Z,9.719342
2022-08-17T01:48:55.435Z,9.719268
2022-08-17T01:49:55.425Z,9.719241
2022-08-17T01:50:55.419Z,9.719297
2022-08-17T01:51:55.416Z,9.719209
2022-08-17T01:52:55.406Z,9.719145
2022-08-17T01:53:55.385Z,9.719200
2022-08-17T01:54:55.381Z,9.719221
2022-08-17T01:55:55.367Z,9.719236
2022-08-17T01:56:55.367Z,9.719274
2022-08-17T01:57:55.347Z,9.719312
2022-08-17T01:58:55.337Z,9.719412
2022-08-17T01:59:55.361Z,9.719401
2022-08-17T02:01:00.601Z,9.719456
2022-08-17T02:01:55.371Z,9.719309
2022-08-17T02:02:55.298Z,9.719267
2022-08-17T02:04:00.405Z,9.719151
2022-08-17T02:04:56.277Z,9.719183
2022-08-17T02:05:55.278Z,9.719212
2022-08-17T02:06:55.244Z,9.719210
2022-08-17T02:07:59.999Z,9.719206
2022-08-17T02:09:02.566Z,9.719261
2022-08-17T02:09:55.235Z,9.719132
2022-08-17T02:10:55.223Z,9.719204
2022-08-17T02:11:56.369Z,9.719209
2022-08-17T02:12:55.197Z,9.719242
2022-08-17T02:13:55.201Z,9.719240
2022-08-17T02:14:56.206Z,9.719282
2022-08-17T02:15:55.171Z,9.719339
2022-08-17T02:16:55.183Z,9.719252
2022-08-17T02:17:55.161Z,9.719316
2022-08-17T02:18:55.159Z,9.719207
2022-08-17T02:19:55.189Z,9.719167
2022-08-17T02:20:55.114Z,9.719191
2022-08-17T02:21:55.118Z,9.719345
2022-08-17T02:22:55.101Z,9.719344
2022-08-17T02:23:55.102Z,9.719242
2022-08-17T02:24:59.901Z,9.719325
2022-08-17T02:25:56.089Z,9.719330
2022-08-17T02:26:55.072Z,9.719329
2022-08-17T02:27:55.060Z,9.719318
2022-08-17T02:28:55.066Z,9.719434
2022-08-17T02:29:55.036Z,9.719227
2022-08-17T02:31:01.105Z,9.719215
2022-08-17T02:31:56.023Z,9.719341
2022-08-17T02:32:55.007Z,9.719284
2022-08-17T02:34:03.301Z,9.719300
2022-08-17T02:34:54.982Z,9.719243
2022-08-17T02:35:54.988Z,9.719278
2022-08-17T02:36:54.965Z,9.719252
2022-08-17T02:37:55.803Z,9.719161
2022-08-17T02:38:54.964Z,9.719257
2022-08-17T02:39:54.996Z,9.719281
2022-08-17T02:40:54.934Z,9.719316
2022-08-17T02:41:54.920Z,9.719306
2022-08-17T02:42:54.910Z,9.719331
2022-08-17T02:43:54.914Z,9.719249
2022-08-17T02:44:54.898Z,9.719268
2022-08-17T02:45:54.878Z,9.719378
2022-08-17T02:46:54.891Z,9.719184
2022-08-17T02:47:54.873Z,9.719448
2022-08-17T02:48:54.858Z,9.719398
2022-08-17T02:49:55.937Z,9.719422
2022-08-17T02:50:54.816Z,9.719367
2022-08-17T02:51:54.819Z,9.719311
2022-08-17T02:53:01.856Z,9.719162
2022-08-17T02:54:38.838Z,9.719306
2022-08-17T02:54:55.805Z,9.719326
2022-08-17T02:55:54.769Z,9.719367
2022-08-17T02:56:54.782Z,9.719385
2022-08-17T02:57:54.754Z,9.719327
2022-08-17T02:58:54.768Z,9.719270
2022-08-17T02:59:54.743Z,9.719097
2022-08-17T03:00:54.734Z,9.719094
2022-08-17T03:01:54.798Z,9.719155
2022-08-17T03:02:54.721Z,9.719183
2022-08-17T03:03:54.734Z,9.719131
2022-08-17T03:04:54.706Z,9.719082
2022-08-17T03:05:54.684Z,9.719161
2022-08-17T03:06:54.672Z,9.719151
2022-08-17T03:07:54.675Z,9.719117
2022-08-17T03:08:54.664Z,9.719088
2022-08-17T03:09:54.682Z,9.719120
2022-08-17T03:10:54.646Z,9.719110
2022-08-17T03:11:55.897Z,9.719145
2022-08-17T03:12:54.619Z,9.719110
2022-08-17T03:13:54.603Z,9.719094
2022-08-17T03:14:54.648Z,9.719145
2022-08-17T03:15:54.582Z,9.719191
2022-08-17T03:16:54.574Z,9.719169
2022-08-17T03:17:54.571Z,9.719085
2022-08-17T03:18:54.557Z,9.719125
2022-08-17T03:19:54.549Z,9.719129
2022-08-17T03:20:54.574Z,9.719123
2022-08-17T03:21:55.172Z,9.719131
2022-08-17T03:22:54.948Z,9.719115
2022-08-17T03:23:55.537Z,9.719131
2022-08-17T03:24:54.489Z,9.719019
2022-08-17T03:25:54.491Z,9.719067
2022-08-17T03:26:54.477Z,9.719155
2022-08-17T03:27:54.482Z,9.719200
2022-08-17T03:28:54.469Z,9.719322
2022-08-17T03:29:54.455Z,9.719175
2022-08-17T03:30:54.447Z,9.719195
2022-08-17T03:31:54.438Z,9.719121
2022-08-17T03:32:54.429Z,9.719139
2022-08-17T03:33:54.412Z,9.719019
2022-08-17T03:34:54.405Z,9.719040
2022-08-17T03:35:54.390Z,9.719126
2022-08-17T03:36:54.376Z,9.719188
2022-08-17T03:38:00.504Z,9.719104
2022-08-17T03:38:55.395Z,9.719148
2022-08-17T03:39:54.390Z,9.719293
2022-08-17T03:40:57.472Z,9.719057
2022-08-17T03:41:55.321Z,9.719099
2022-08-17T03:42:54.324Z,9.719197
2022-08-17T03:43:54.339Z,9.719197
2022-08-17T03:44:54.305Z,9.719096
2022-08-17T03:45:54.296Z,9.719085
2022-08-17T03:46:54.290Z,9.719111
2022-08-17T03:47:54.277Z,9.719081
2022-08-17T03:48:54.258Z,9.719272
2022-08-17T03:49:54.285Z,9.718974
2022-08-17T03:50:54.251Z,9.718974
2022-08-17T03:51:54.225Z,9.719250
2022-08-17T03:52:54.247Z,9.719292
2022-08-17T03:53:55.210Z,9.719176
2022-08-17T03:54:54.210Z,9.719108
2022-08-17T03:55:54.195Z,9.719113
2022-08-17T03:56:54.177Z,9.719126
2022-08-17T03:57:54.187Z,9.719079
2022-08-17T03:58:54.198Z,9.719205
2022-08-17T03:59:54.163Z,9.719247
2022-08-17T04:00:54.147Z,9.719398
2022-08-17T04:01:54.283Z,9.719373
2022-08-17T04:02:54.126Z,9.719264
2022-08-17T04:03:54.146Z,9.719316
2022-08-17T04:04:54.111Z,9.719210
2022-08-17T04:05:54.095Z,9.719258
2022-08-17T04:06:54.104Z,9.719208
2022-08-17T04:07:54.069Z,9.719186
2022-08-17T04:08:54.069Z,9.719081
2022-08-17T04:09:54.075Z,9.719037
2022-08-17T04:10:54.048Z,9.719036
2022-08-17T04:11:54.033Z,9.719105
2022-08-17T04:12:54.063Z,9.719150
2022-08-17T04:13:54.024Z,9.719202
2022-08-17T04:14:55.289Z,9.719122
2022-08-17T04:15:55.012Z,9.719102
2022-08-17T04:16:54.072Z,9.719113
2022-08-17T04:17:53.982Z,9.719133
2022-08-17T04:18:54.986Z,9.719132
2022-08-17T04:19:53.994Z,9.719170
2022-08-17T04:20:53.954Z,9.719192
2022-08-17T04:21:53.967Z,9.719218
2022-08-17T04:22:53.970Z,9.719168
2022-08-17T04:23:53.911Z,9.719112
2022-08-17T04:24:54.919Z,9.719140
2022-08-17T04:25:53.916Z,9.719090
2022-08-17T04:26:54.783Z,9.719052
2022-08-17T04:27:54.913Z,9.719091
2022-08-17T04:28:53.876Z,9.719140
2022-08-17T04:29:55.666Z,9.719192
2022-08-17T04:30:53.855Z,9.719233
2022-08-17T04:31:53.861Z,9.719212
2022-08-17T04:33:04.632Z,9.719218
2022-08-17T04:33:53.829Z,9.719197
2022-08-17T04:34:53.816Z,9.719233
2022-08-17T04:35:53.830Z,9.719190
2022-08-17T04:36:53.800Z,9.719203
2022-08-17T04:37:53.803Z,9.719178
2022-08-17T04:38:53.782Z,9.719166
2022-08-17T04:39:53.806Z,9.719193
2022-08-17T04:40:53.796Z,9.719201
2022-08-17T04:41:53.774Z,9.719298
2022-08-17T04:42:53.742Z,9.719170
2022-08-17T04:43:54.725Z,9.719126
2022-08-17T04:44:53.714Z,9.719166
2022-08-17T04:45:55.916Z,9.719079
2022-08-17T04:46:53.722Z,9.719056
2022-08-17T04:47:53.700Z,9.719074
2022-08-17T04:48:53.681Z,9.718972
2022-08-17T04:49:53.665Z,9.719060
2022-08-17T04:50:53.663Z,9.719034
2022-08-17T04:51:55.733Z,9.718951
2022-08-17T04:52:53.721Z,9.718979
2022-08-17T04:53:54.424Z,9.718937
2022-08-17T04:54:54.613Z,9.718968
2022-08-17T04:55:53.614Z,9.718887
2022-08-17T04:56:53.634Z,9.718859
2022-08-17T04:57:54.587Z,9.718898
2022-08-17T04:58:53.577Z,9.718974
2022-08-17T04:59:53.568Z,9.718982
2022-08-17T05:00:53.586Z,9.719012
2022-08-17T05:01:53.592Z,9.718997
2022-08-17T05:02:53.759Z,9.719038
2022-08-17T05:03:53.539Z,9.719012
2022-08-17T05:04:53.513Z,9.719081
2022-08-17T05:05:53.512Z,9.719017
2022-08-17T05:06:53.502Z,9.718930
2022-08-17T05:07:53.506Z,9.718949
2022-08-17T05:08:53.519Z,9.719083
2022-08-17T05:09:53.473Z,9.719187
2022-08-17T05:10:53.471Z,9.719188
2022-08-17T05:11:53.454Z,9.719118
2022-08-17T05:12:53.451Z,9.719009
2022-08-17T05:13:53.454Z,9.719051
2022-08-17T05:14:53.423Z,9.719065
2022-08-17T05:15:53.434Z,9.719096
2022-08-17T05:16:53.412Z,9.719121
2022-08-17T05:17:53.403Z,9.719098
2022-08-17T05:18:53.400Z,9.719086
2022-08-17T05:19:53.370Z,9.719136
2022-08-17T05:20:53.357Z,9.719290
2022-08-17T05:21:53.368Z,9.719333
2022-08-17T05:22:53.343Z,9.719412
2022-08-17T05:23:54.849Z,9.719334
2022-08-17T05:24:53.828Z,9.719274
2022-08-17T05:25:53.329Z,9.719591
2022-08-17T05:26:53.302Z,9.719297
2022-08-17T05:27:53.307Z,9.719253
2022-08-17T05:28:53.339Z,9.719263
2022-08-17T05:29:53.273Z,9.719337
2022-08-17T05:30:53.266Z,9.719455
2022-08-17T05:31:53.257Z,9.719321
2022-08-17T05:32:53.356Z,9.719402
2022-08-17T05:33:53.301Z,9.719460
2022-08-17T05:34:53.257Z,9.719370
2022-08-17T05:35:53.221Z,9.719170
2022-08-17T05:36:53.213Z,9.719316
2022-08-17T05:37:53.212Z,9.719121
2022-08-17T05:38:53.215Z,9.718987
2022-08-17T05:39:53.304Z,9.719005
2022-08-17T05:40:53.190Z,9.719020
2022-08-17T05:41:53.172Z,9.719142
2022-08-17T05:42:53.316Z,9.719068
2022-08-17T05:43:56.426Z,9.719105
2022-08-17T05:44:54.165Z,9.719183
2022-08-17T05:45:55.657Z,9.719110
2022-08-17T05:46:53.129Z,9.719181
2022-08-17T05:47:53.116Z,9.719184
2022-08-17T05:48:53.106Z,9.719193
2022-08-17T05:49:53.912Z,9.719126
2022-08-17T05:50:53.088Z,9.719128
2022-08-17T05:51:53.099Z,9.719147
2022-08-17T05:52:53.077Z,9.719151
2022-08-17T05:53:53.054Z,9.719191
2022-08-17T05:54:53.063Z,9.719106
2022-08-17T05:55:53.045Z,9.719185
2022-08-17T05:56:53.045Z,9.719152
2022-08-17T05:57:54.182Z,9.719186
2022-08-17T05:58:53.013Z,9.719194
2022-08-17T05:59:53.021Z,9.719153
2022-08-17T06:00:53.022Z,9.719121
2022-08-17T06:01:52.989Z,9.719167
2022-08-17T06:02:53.295Z,9.719069
2022-08-17T06:03:52.991Z,9.719034
2022-08-17T06:04:52.991Z,9.719031
2022-08-17T06:05:52.957Z,9.718980
2022-08-17T06:06:52.979Z,9.719029
2022-08-17T06:07:52.947Z,9.718907
2022-08-17T06:08:52.942Z,9.718925
2022-08-17T06:09:52.933Z,9.718831
2022-08-17T06:10:52.923Z,9.719019
2022-08-17T06:11:53.342Z,9.719090
2022-08-17T06:12:52.892Z,9.719056
2022-08-17T06:13:52.892Z,9.719123
2022-08-17T06:14:52.870Z,9.719140
2022-08-17T06:15:52.872Z,9.719060
2022-08-17T06:16:52.959Z,9.719015
2022-08-17T06:17:52.870Z,9.719015
2022-08-17T06:18:52.833Z,9.718930
2022-08-17T06:19:52.837Z,9.719055
2022-08-17T06:20:52.817Z,9.719128
2022-08-17T06:21:52.834Z,9.719185
2022-08-17T06:22:52.935Z,9.719222
2022-08-17T06:23:52.799Z,9.719313
2022-08-17T06:24:52.792Z,9.719136
2022-08-17T06:25:52.788Z,9.718950
2022-08-17T06:26:52.768Z,9.718955
2022-08-17T06:27:53.386Z,9.718908
2022-08-17T06:28:52.768Z,9.719030
2022-08-17T06:29:52.763Z,9.719034
2022-08-17T06:31:00.722Z,9.719120
2022-08-17T06:31:53.739Z,9.719131
2022-08-17T06:32:52.900Z,9.719059
2022-08-17T06:33:52.708Z,9.719125
2022-08-17T06:34:52.725Z,9.719146
2022-08-17T06:35:52.700Z,9.719265
2022-08-17T06:36:52.712Z,9.719216
2022-08-17T06:37:52.670Z,9.719234
2022-08-17T06:38:52.698Z,9.719179
2022-08-17T06:39:53.645Z,9.719207
2022-08-17T06:40:52.646Z,9.719191
2022-08-17T06:41:52.655Z,9.719186
2022-08-17T06:43:06.667Z,9.719133
2022-08-17T06:43:53.650Z,9.719149
2022-08-17T06:44:52.611Z,9.719116
2022-08-17T06:45:52.609Z,9.719168
2022-08-17T06:46:52.607Z,9.719212
2022-08-17T06:47:52.614Z,9.719156
2022-08-17T06:48:52.578Z,9.719167
2022-08-17T06:49:55.424Z,9.719170
2022-08-17T06:50:52.572Z,9.719164
2022-08-17T06:51:52.562Z,9.719243
2022-08-17T06:52:52.564Z,9.719184
2022-08-17T06:53:52.560Z,9.719158
2022-08-17T06:58:15.648Z,9.719213
2022-08-17T06:59:06.786Z,9.719190
2022-08-17T07:00:05.759Z,9.719199
2022-08-17T07:01:05.844Z,9.719163
2022-08-17T07:02:05.743Z,9.719193
2022-08-17T07:03:05.979Z,9.719159
2022-08-17T07:04:11.976Z,9.719249
2022-08-17T07:05:05.710Z,9.719226
2022-08-17T07:06:05.716Z,9.719263
2022-08-17T07:07:05.701Z,9.719251
2022-08-17T07:08:05.693Z,9.719324
2022-08-17T07:09:05.692Z,9.719244
2022-08-17T07:10:05.684Z,9.719222
2022-08-17T07:11:05.689Z,9.719135
2022-08-17T07:12:05.657Z,9.719205
2022-08-17T07:13:05.640Z,9.719233
2022-08-17T07:14:05.635Z,9.719195
2022-08-17T07:15:05.630Z,9.719254
2022-08-17T07:16:05.641Z,9.719284
2022-08-17T07:17:05.609Z,9.719200
2022-08-17T07:18:05.604Z,9.719191
2022-08-17T07:19:05.588Z,9.719213
2022-08-17T07:20:05.583Z,9.719282
2022-08-17T07:21:05.581Z,9.719175
2022-08-17T07:22:05.598Z,9.719203
2022-08-17T07:23:05.558Z,9.719292
2022-08-17T07:24:05.548Z,9.719131
2022-08-17T07:25:05.556Z,9.719266
2022-08-17T07:26:05.540Z,9.719239
2022-08-17T07:27:05.584Z,9.719282
2022-08-17T07:28:06.817Z,9.719124
2022-08-17T07:29:05.546Z,9.719117
2022-08-17T07:30:09.708Z,9.719239
2022-08-17T07:31:06.490Z,9.719331
2022-08-17T07:32:05.500Z,9.719230
2022-08-17T07:33:05.478Z,9.719311
2022-08-17T07:34:05.467Z,9.719369
2022-08-17T07:35:05.485Z,9.719292
2022-08-17T07:36:05.449Z,9.719099
2022-08-17T07:37:05.484Z,9.719127
2022-08-17T07:38:05.458Z,9.719241
2022-08-17T07:39:06.430Z,9.719313
2022-08-17T07:40:16.357Z,9.719184
2022-08-17T07:41:06.416Z,9.719138
2022-08-17T07:42:05.412Z,9.719205
2022-08-17T07:43:05.454Z,9.719232
2022-08-17T07:44:05.428Z,9.719220
2022-08-17T07:45:05.388Z,9.719190
2022-08-17T07:46:05.393Z,9.719208
2022-08-17T07:47:05.365Z,9.719172
2022-08-17T07:48:05.362Z,9.719209
2022-08-17T07:49:05.377Z,9.719242
2022-08-17T07:50:05.351Z,9.719349
2022-08-17T07:51:05.344Z,9.719431
2022-08-17T07:52:28.263Z,9.719269
2022-08-17T07:53:06.339Z,9.719132
2022-08-17T07:54:14.642Z,9.719220
2022-08-17T07:55:07.329Z,9.719232
2022-08-17T07:56:05.274Z,9.719203
2022-08-17T07:57:05.298Z,9.719293
2022-08-17T07:58:05.286Z,9.719274
2022-08-17T07:59:05.274Z,9.719328
2022-08-17T08:00:05.270Z,9.719310
2022-08-17T08:01:05.254Z,9.719252
2022-08-17T08:02:05.551Z,9.719258
2022-08-17T08:03:05.219Z,9.719223
2022-08-17T08:04:05.758Z,9.719325
2022-08-17T08:05:06.741Z,9.719389
2022-08-17T08:06:05.228Z,9.719414
2022-08-17T08:07:05.196Z,9.719439
2022-08-17T08:08:05.190Z,9.719409
2022-08-17T08:09:05.179Z,9.719468
2022-08-17T08:10:05.170Z,9.719522
2022-08-17T08:11:05.188Z,9.719417
2022-08-17T08:12:05.164Z,9.719357
2022-08-17T08:13:05.164Z,9.719296
2022-08-17T08:14:05.161Z,9.719375
2022-08-17T08:15:05.139Z,9.719359
2022-08-17T08:16:05.151Z,9.719280
2022-08-17T08:17:05.192Z,9.719180
2022-08-17T08:18:05.108Z,9.719547
2022-08-17T08:19:05.101Z,9.719774
2022-08-17T08:20:34.892Z,9.719835
2022-08-17T08:21:06.094Z,9.719619
2022-08-17T08:22:05.074Z,9.719712
2022-08-17T08:23:05.178Z,9.719334
2022-08-17T08:24:05.089Z,9.719839
2022-08-17T08:25:05.076Z,9.719823
2022-08-17T08:26:05.051Z,9.719877
2022-08-17T08:27:05.038Z,9.719746
2022-08-17T08:28:05.018Z,9.719799
2022-08-17T08:29:05.018Z,9.719616
2022-08-17T08:30:05.053Z,9.719328
2022-08-17T08:31:05.084Z,9.719206
2022-08-17T08:32:05.588Z,9.719239
2022-08-17T08:33:05.069Z,9.719513
2022-08-17T08:34:05.078Z,9.719410
2022-08-17T08:35:04.958Z,9.719625
2022-08-17T08:36:04.988Z,9.719386
2022-08-17T08:37:15.726Z,9.719419
2022-08-17T08:38:05.953Z,9.719345
2022-08-17T08:39:04.930Z,9.719361
2022-08-17T08:40:05.006Z,9.719352
2022-08-17T08:41:04.947Z,9.719329
2022-08-17T08:42:04.938Z,9.719254
2022-08-17T08:43:04.885Z,9.719462
2022-08-17T08:44:04.886Z,9.719464
2022-08-17T08:45:05.515Z,9.719629
2022-08-17T08:46:04.867Z,9.719572
2022-08-17T08:47:04.860Z,9.719439
2022-08-17T08:48:05.441Z,9.719643
2022-08-17T08:49:11.978Z,9.719508
2022-08-17T08:50:06.850Z,9.719439
2022-08-17T08:51:04.819Z,9.719476
2022-08-17T08:52:04.807Z,9.719469
2022-08-17T08:53:04.818Z,9.719459
2022-08-17T08:54:04.803Z,9.719373
2022-08-17T08:55:04.786Z,9.719338
2022-08-17T08:56:04.774Z,9.719294
2022-08-17T08:57:24.370Z,9.719316
2022-08-17T08:58:06.749Z,9.719217
2022-08-17T08:59:05.757Z,9.719012
2022-08-17T09:00:04.755Z,9.719311
2022-08-17T09:01:04.777Z,9.719167
2022-08-17T09:02:04.751Z,9.719063
2022-08-17T09:03:04.708Z,9.718954
2022-08-17T09:04:19.919Z,9.719340
2022-08-17T09:05:15.223Z,9.719424
2022-08-17T09:06:06.691Z,9.719164
2022-08-17T09:07:04.713Z,9.718915
2022-08-17T09:08:04.695Z,9.719273
2022-08-17T09:09:04.655Z,9.719278
2022-08-17T09:10:04.648Z,9.719377
2022-08-17T09:11:04.635Z,9.719167
2022-08-17T09:12:05.489Z,9.719270
2022-08-17T09:13:09.911Z,9.719206
2022-08-17T09:14:06.799Z,9.719093
2022-08-17T09:15:09.449Z,9.719022
2022-08-17T09:16:04.616Z,9.719027
2022-08-17T09:17:04.595Z,9.719346
2022-08-17T09:19:01.263Z,9.719464
2022-08-17T09:19:06.878Z,9.719186
2022-08-17T09:20:04.603Z,9.719563
2022-08-17T09:21:04.633Z,9.719306
2022-08-17T09:22:04.555Z,9.719293
2022-08-17T09:23:05.334Z,9.719356
2022-08-17T09:24:04.568Z,9.719065
2022-08-17T09:25:04.532Z,9.719163
2022-08-17T09:26:04.531Z,9.719050
2022-08-17T09:27:04.539Z,9.719049
2022-08-17T09:28:04.516Z,9.719240
2022-08-17T09:29:08.981Z,9.719279
2022-08-17T09:30:04.566Z,9.719074
2022-08-17T09:31:04.465Z,9.719020
2022-08-17T09:32:04.525Z,9.719038
2022-08-17T09:33:05.459Z,9.719101
2022-08-17T09:34:05.350Z,9.719157
2022-08-17T09:35:04.476Z,9.719093
2022-08-17T09:36:04.490Z,9.719090
2022-08-17T09:37:04.437Z,9.719082
2022-08-17T09:38:04.429Z,9.718995
2022-08-17T09:39:04.421Z,9.719002
2022-08-17T09:40:04.422Z,9.718987
2022-08-17T09:41:04.392Z,9.719029
2022-08-17T09:42:04.378Z,9.719129
2022-08-17T09:43:04.385Z,9.719153
2022-08-17T09:44:04.372Z,9.719083
2022-08-17T09:45:04.344Z,9.719044
2022-08-17T09:46:04.354Z,9.719033
2022-08-17T09:47:04.343Z,9.719039
2022-08-17T09:48:04.324Z,9.719129
2022-08-17T09:49:04.331Z,9.718861
2022-08-17T09:50:04.338Z,9.718846
2022-08-17T09:51:06.409Z,9.719256
2022-08-17T09:52:05.289Z,9.719302
2022-08-17T09:53:04.276Z,9.719205
2022-08-17T09:54:27.767Z,9.719194
2022-08-17T09:55:06.289Z,9.719156
2022-08-17T09:56:04.248Z,9.719230
2022-08-17T09:57:27.863Z,9.719188
2022-08-17T09:58:06.242Z,9.719049
2022-08-17T09:59:04.234Z,9.719029
2022-08-17T10:00:04.233Z,9.719181
2022-08-17T10:01:04.256Z,9.719288
2022-08-17T10:02:04.211Z,9.719249
2022-08-17T10:03:04.210Z,9.719186
2022-08-17T10:04:04.185Z,9.719090
2022-08-17T10:05:04.178Z,9.719105
2022-08-17T10:06:06.391Z,9.719214
2022-08-17T10:07:04.155Z,9.719253
2022-08-17T10:08:04.195Z,9.719160
2022-08-17T10:09:04.145Z,9.719095
2022-08-17T10:10:04.133Z,9.719080
2022-08-17T10:11:04.128Z,9.719034
2022-08-17T10:12:04.113Z,9.718983
2022-08-17T10:13:04.129Z,9.719060
2022-08-17T10:14:24.076Z,9.719218
2022-08-17T10:15:08.181Z,9.719213
2022-08-17T10:16:05.092Z,9.719174
2022-08-17T10:17:04.080Z,9.719184
2022-08-17T10:18:04.065Z,9.719161
2022-08-17T10:19:04.059Z,9.719102
2022-08-17T10:20:04.051Z,9.719062
2022-08-17T10:21:04.043Z,9.719138
2022-08-17T10:22:14.627Z,9.719110
2022-08-17T10:23:05.027Z,9.719160
2022-08-17T10:24:04.008Z,9.719130
2022-08-17T10:25:13.530Z,9.719166
2022-08-17T10:26:04.991Z,9.719164
2022-08-17T10:27:03.987Z,9.719168
2022-08-17T10:28:03.979Z,9.719156
2022-08-17T10:29:03.974Z,9.719164
2022-08-17T10:30:03.982Z,9.719187
2022-08-17T10:31:33.806Z,9.719186
2022-08-17T10:32:05.934Z,9.719132
2022-08-17T10:33:03.933Z,9.719195
2022-08-17T10:34:03.948Z,9.719242
2022-08-17T10:35:03.927Z,9.719293
2022-08-17T10:36:08.701Z,9.719141
2022-08-17T10:37:05.911Z,9.718972
2022-08-17T10:38:03.875Z,9.719303
2022-08-17T10:39:03.873Z,9.719761
2022-08-17T10:40:03.945Z,9.719360
2022-08-17T10:41:03.849Z,9.718975
2022-08-17T10:42:03.884Z,9.719170
2022-08-17T10:43:03.845Z,9.719019
2022-08-17T10:44:40.392Z,9.719319
2022-08-17T10:45:04.833Z,9.718766
2022-08-17T10:46:27.694Z,9.718585
2022-08-17T10:47:04.823Z,9.718703
2022-08-17T10:48:06.233Z,9.718777
2022-08-17T10:49:04.790Z,9.719147
2022-08-17T10:50:03.767Z,9.719599
2022-08-17T10:51:03.775Z,9.719546
2022-08-17T10:52:03.776Z,9.719546
2022-08-17T10:53:03.756Z,9.719389
2022-08-17T10:54:03.753Z,9.719392
2022-08-17T10:55:03.728Z,9.718847
2022-08-17T10:56:03.719Z,9.718691
2022-08-17T10:57:03.739Z,9.718697
2022-08-17T10:58:03.699Z,9.718319
2022-08-17T10:59:03.729Z,9.718319
2022-08-17T11:00:03.776Z,9.718319
2022-08-17T11:01:03.729Z,9.718319
2022-08-17T11:02:03.665Z,9.718319
2022-08-17T11:03:03.657Z,9.718319
2022-08-17T11:04:03.671Z,9.718319
2022-08-17T11:05:03.665Z,9.719208
2022-08-17T11:06:03.628Z,9.718800
2022-08-17T11:07:03.608Z,9.718937
2022-08-17T11:08:03.646Z,9.718827
2022-08-17T11:09:03.607Z,9.719054
2022-08-17T11:10:03.644Z,9.719223
2022-08-17T11:11:03.600Z,9.718924
2022-08-17T11:12:03.575Z,9.718724
2022-08-17T11:13:03.572Z,9.718946
2022-08-17T11:14:03.568Z,9.719507
2022-08-17T11:15:03.565Z,9.719135
2022-08-17T11:16:08.092Z,9.719946
2022-08-17T11:17:04.516Z,9.719365
2022-08-17T11:18:03.517Z,9.719129
2022-08-17T11:19:03.523Z,9.719240
2022-08-17T11:20:03.528Z,9.719262
2022-08-17T11:21:03.491Z,9.719300
2022-08-17T11:22:03.495Z,9.719315
2022-08-17T11:23:03.474Z,9.719252
2022-08-17T11:24:03.473Z,9.719261
2022-08-17T11:25:03.454Z,9.719276
2022-08-17T11:26:03.463Z,9.719235
2022-08-17T11:27:03.443Z,9.719250
2022-08-17T11:28:03.425Z,9.719257
2022-08-17T11:29:03.451Z,9.719143
2022-08-17T11:30:03.425Z,9.719146
2022-08-17T11:31:03.414Z,9.719210
2022-08-17T11:32:03.384Z,9.719311
2022-08-17T11:33:03.387Z,9.719265
2022-08-17T11:34:03.419Z,9.719342
2022-08-17T11:35:03.358Z,9.719436
2022-08-17T11:36:03.362Z,9.719218
2022-08-17T11:37:03.332Z,9.719286
2022-08-17T11:38:03.325Z,9.719148
2022-08-17T11:39:03.314Z,9.719157
2022-08-17T11:40:03.371Z,9.719136
2022-08-17T11:41:03.298Z,9.719109
2022-08-17T11:42:03.291Z,9.719001
2022-08-17T11:43:03.290Z,9.719174
2022-08-17T11:44:03.296Z,9.719320
2022-08-17T11:45:03.293Z,9.719331
2022-08-17T11:46:03.268Z,9.719305
2022-08-17T11:47:03.260Z,9.719212
2022-08-17T11:48:26.756Z,9.719316